createdAt,value
2017-09-01T00:01:47.054Z,14.90
2017-09-01T00:04:15.894Z,14.70
2017-09-01T00:06:43.991Z,14.80
2017-09-01T00:09:12.483Z,14.80
2017-09-01T00:11:40.559Z,14.90
2017-09-01T00:14:08.658Z,15.00
2017-09-01T00:16:36.775Z,15.10
2017-09-01T00:19:04.855Z,15.30
2017-09-01T00:21:32.935Z,15.40
2017-09-01T00:24:01.035Z,15.40
2017-09-01T00:26:29.126Z,15.40
2017-09-01T00:28:57.601Z,15.40
2017-09-01T00:31:25.697Z,15.40
2017-09-01T00:33:54.543Z,15.20
2017-09-01T00:36:22.647Z,15.30
2017-09-01T00:38:50.718Z,15.20
2017-09-01T00:41:19.212Z,15.30
2017-09-01T00:43:47.286Z,15.30
2017-09-01T00:46:15.755Z,15.30
2017-09-01T00:48:43.847Z,15.30
2017-09-01T00:51:12.726Z,15.50
2017-09-01T00:53:40.812Z,15.50
2017-09-01T00:56:09.638Z,15.40
2017-09-01T00:58:37.730Z,15.20
2017-09-01T01:01:05.827Z,15.20
2017-09-01T01:03:34.695Z,15.20
2017-09-01T01:06:02.786Z,15.20
2017-09-01T01:08:31.662Z,15.30
2017-09-01T01:10:59.738Z,15.30
2017-09-01T01:13:27.807Z,15.30
2017-09-01T01:15:56.672Z,15.20
2017-09-01T01:18:24.754Z,15.10
2017-09-01T01:20:52.846Z,15.10
2017-09-01T01:23:20.919Z,15.00
2017-09-01T01:25:48.994Z,15.00
2017-09-01T01:28:17.090Z,14.80
2017-09-01T01:30:45.163Z,14.70
2017-09-01T01:33:13.654Z,14.60
2017-09-01T01:35:41.751Z,14.40
2017-09-01T01:38:10.215Z,14.20
2017-09-01T01:40:38.305Z,14.00
2017-09-01T01:43:07.146Z,14.10
2017-09-01T01:45:35.279Z,14.20
2017-09-01T01:48:04.259Z,14.30
2017-09-01T01:50:33.059Z,14.30
2017-09-01T01:53:01.150Z,14.40
2017-09-01T01:55:29.223Z,14.40
2017-09-01T01:57:57.355Z,14.40
2017-09-01T02:00:25.437Z,14.40
2017-09-01T02:02:53.510Z,14.50
2017-09-01T02:05:25.791Z,14.30
2017-09-01T02:07:53.862Z,14.30
2017-09-01T02:10:21.959Z,14.30
2017-09-01T02:12:50.818Z,14.20
2017-09-01T02:15:18.930Z,14.20
2017-09-01T02:17:47.003Z,14.20
2017-09-01T02:20:15.952Z,14.20
2017-09-01T02:22:44.003Z,14.30
2017-09-01T02:25:12.870Z,14.20
2017-09-01T02:27:40.947Z,14.20
2017-09-01T02:30:09.783Z,14.00
2017-09-01T02:32:38.653Z,14.10
2017-09-01T02:35:06.727Z,14.00
2017-09-01T02:37:35.631Z,14.10
2017-09-01T02:40:03.686Z,14.10
2017-09-01T02:42:32.598Z,13.90
2017-09-01T02:45:00.655Z,14.00
2017-09-01T02:47:29.498Z,14.00
2017-09-01T02:49:57.591Z,13.80
2017-09-01T02:52:26.429Z,13.70
2017-09-01T02:54:54.524Z,14.00
2017-09-01T02:57:23.481Z,14.10
2017-09-01T02:59:51.911Z,14.10
2017-09-01T03:02:20.786Z,14.10
2017-09-01T03:04:48.858Z,14.00
2017-09-01T03:07:17.713Z,14.00
2017-09-01T03:09:45.807Z,13.90
2017-09-01T03:12:13.887Z,14.10
2017-09-01T03:14:41.970Z,14.00
2017-09-01T03:17:10.090Z,14.00
2017-09-01T03:19:38.175Z,14.00
2017-09-01T03:22:06.251Z,14.10
2017-09-01T03:24:34.746Z,14.00
2017-09-01T03:27:02.846Z,14.10
2017-09-01T03:29:30.942Z,14.00
2017-09-01T03:31:59.038Z,14.00
2017-09-01T03:34:27.110Z,14.10
2017-09-01T03:36:55.228Z,14.10
2017-09-01T03:39:23.298Z,14.10
2017-09-01T03:41:51.766Z,14.00
2017-09-01T03:44:19.863Z,14.00
2017-09-01T03:46:48.729Z,13.60
2017-09-01T03:49:16.802Z,13.70
2017-09-01T03:51:44.879Z,13.70
2017-09-01T03:54:12.979Z,13.70
2017-09-01T03:56:41.507Z,13.60
2017-09-01T03:59:09.607Z,13.60
2017-09-01T04:01:37.671Z,13.60
2017-09-01T04:04:05.766Z,13.70
2017-09-01T04:06:34.250Z,13.80
2017-09-01T04:09:02.342Z,13.80
2017-09-01T04:11:30.835Z,13.80
2017-09-01T04:13:59.680Z,13.80
2017-09-01T04:16:27.774Z,13.90
2017-09-01T04:18:55.851Z,13.90
2017-09-01T04:21:24.711Z,14.00
2017-09-01T04:23:52.815Z,13.90
2017-09-01T04:26:20.927Z,13.80
2017-09-01T04:28:50.010Z,13.80
2017-09-01T04:31:18.479Z,13.90
2017-09-01T04:33:46.582Z,13.70
2017-09-01T04:36:14.737Z,13.50
2017-09-01T04:38:42.854Z,13.50
2017-09-01T04:41:10.934Z,13.50
2017-09-01T04:43:39.018Z,13.50
2017-09-01T04:46:07.895Z,13.50
2017-09-01T04:48:36.009Z,13.60
2017-09-01T04:51:04.091Z,13.60
2017-09-01T04:53:32.178Z,13.70
2017-09-01T04:56:00.283Z,13.80
2017-09-01T04:58:28.367Z,13.80
2017-09-01T05:00:56.470Z,13.80
2017-09-01T05:03:24.563Z,13.80
2017-09-01T05:05:53.075Z,13.80
2017-09-01T05:08:21.163Z,13.80
2017-09-01T05:10:49.246Z,13.90
2017-09-01T05:13:17.350Z,13.90
2017-09-01T05:15:45.431Z,13.90
2017-09-01T05:18:13.543Z,13.90
2017-09-01T05:20:41.635Z,13.80
2017-09-01T05:23:10.107Z,13.80
2017-09-01T05:25:38.251Z,13.80
2017-09-01T05:28:06.822Z,13.60
2017-09-01T05:30:34.882Z,13.50
2017-09-01T05:33:02.975Z,13.40
2017-09-01T05:35:31.088Z,13.20
2017-09-01T05:37:59.166Z,13.10
2017-09-01T05:40:27.262Z,13.20
2017-09-01T05:42:55.390Z,13.40
2017-09-01T05:45:23.483Z,13.50
2017-09-01T05:47:51.959Z,13.60
2017-09-01T05:50:20.067Z,13.50
2017-09-01T05:52:48.155Z,13.70
2017-09-01T05:55:16.279Z,13.70
2017-09-01T05:57:44.367Z,13.80
2017-09-01T06:00:13.293Z,13.90
2017-09-01T06:02:41.759Z,14.00
2017-09-01T06:05:10.738Z,14.10
2017-09-01T06:07:39.659Z,14.20
2017-09-01T06:10:08.099Z,14.20
2017-09-01T06:12:36.982Z,14.40
2017-09-01T06:15:05.062Z,14.40
2017-09-01T06:17:33.996Z,14.40
2017-09-01T06:20:02.046Z,14.20
2017-09-01T06:22:30.906Z,14.20
2017-09-01T06:24:59.014Z,14.10
2017-09-01T06:27:27.863Z,14.00
2017-09-01T06:29:55.962Z,13.80
2017-09-01T06:32:24.075Z,13.70
2017-09-01T06:34:52.151Z,13.80
2017-09-01T06:37:21.026Z,13.90
2017-09-01T06:39:49.126Z,13.90
2017-09-01T06:42:17.203Z,14.00
2017-09-01T06:44:45.345Z,13.90
2017-09-01T06:47:14.236Z,13.70
2017-09-01T06:49:42.310Z,13.90
2017-09-01T06:52:10.782Z,14.00
2017-09-01T06:54:38.860Z,14.00
2017-09-01T06:57:06.962Z,14.20
2017-09-01T06:59:35.045Z,14.30
2017-09-01T07:02:03.138Z,14.30
2017-09-01T07:04:31.990Z,14.40
2017-09-01T07:07:00.066Z,14.40
2017-09-01T07:09:28.562Z,14.60
2017-09-01T07:11:57.400Z,14.50
2017-09-01T07:14:25.890Z,14.60
2017-09-01T07:16:53.982Z,14.70
2017-09-01T07:19:22.068Z,14.90
2017-09-01T07:21:50.151Z,14.90
2017-09-01T07:24:18.224Z,15.10
2017-09-01T07:26:46.319Z,15.30
2017-09-01T07:29:15.158Z,15.40
2017-09-01T07:31:43.250Z,15.40
2017-09-01T07:34:11.323Z,15.50
2017-09-01T07:36:39.419Z,15.60
2017-09-01T07:39:08.283Z,15.90
2017-09-01T07:41:36.775Z,16.10
2017-09-01T07:44:05.618Z,16.20
2017-09-01T07:46:34.111Z,16.40
2017-09-01T07:49:02.186Z,16.60
2017-09-01T07:51:30.284Z,16.80
2017-09-01T07:53:58.359Z,17.00
2017-09-01T07:56:26.431Z,17.30
2017-09-01T07:58:54.650Z,17.40
2017-09-01T08:01:23.559Z,17.40
2017-09-01T08:03:52.355Z,17.30
2017-09-01T08:06:20.578Z,17.50
2017-09-01T08:08:48.675Z,17.40
2017-09-01T08:11:17.147Z,17.60
2017-09-01T08:13:45.263Z,17.70
2017-09-01T08:16:13.339Z,17.90
2017-09-01T08:18:41.410Z,18.00
2017-09-01T08:21:09.522Z,18.00
2017-09-01T08:23:38.460Z,18.20
2017-09-01T08:26:07.256Z,18.40
2017-09-01T08:28:35.354Z,18.40
2017-09-01T08:31:03.455Z,18.50
2017-09-01T08:33:32.303Z,18.70
2017-09-01T08:36:00.419Z,18.80
2017-09-01T08:38:29.261Z,18.80
2017-09-01T08:40:57.333Z,18.90
2017-09-01T08:43:26.198Z,19.20
2017-09-01T08:45:54.275Z,19.00
2017-09-01T08:48:22.386Z,19.00
2017-09-01T08:50:50.459Z,19.30
2017-09-01T08:53:18.559Z,19.40
2017-09-01T08:55:46.678Z,19.40
2017-09-01T08:58:15.163Z,19.50
2017-09-01T09:00:43.600Z,19.60
2017-09-01T09:03:12.464Z,19.60
2017-09-01T09:05:40.559Z,19.70
2017-09-01T09:08:09.487Z,19.70
2017-09-01T09:10:37.528Z,20.00
2017-09-01T09:13:05.619Z,20.00
2017-09-01T09:15:33.726Z,20.20
2017-09-01T09:18:02.195Z,20.20
2017-09-01T09:20:30.667Z,20.30
2017-09-01T09:22:59.174Z,20.50
2017-09-01T09:25:27.246Z,20.50
2017-09-01T09:27:55.322Z,20.50
2017-09-01T09:30:23.427Z,20.50
2017-09-01T09:32:51.547Z,20.80
2017-09-01T09:35:19.623Z,21.00
2017-09-01T09:37:47.718Z,21.00
2017-09-01T09:40:16.265Z,20.90
2017-09-01T09:42:44.306Z,20.90
2017-09-01T09:45:12.411Z,21.00
2017-09-01T09:47:41.301Z,21.00
2017-09-01T09:50:09.381Z,20.90
2017-09-01T09:52:37.467Z,21.00
2017-09-01T09:55:05.538Z,21.10
2017-09-01T09:57:34.102Z,21.30
2017-09-01T10:00:02.910Z,21.50
2017-09-01T10:02:31.756Z,21.40
2017-09-01T10:04:59.954Z,21.40
2017-09-01T10:07:28.846Z,21.00
2017-09-01T10:09:57.763Z,21.00
2017-09-01T10:12:25.838Z,21.00
2017-09-01T10:14:53.942Z,21.30
2017-09-01T10:17:22.414Z,21.60
2017-09-01T10:19:50.487Z,21.50
2017-09-01T10:22:19.346Z,21.70
2017-09-01T10:24:47.418Z,21.70
2017-09-01T10:27:16.390Z,25.80
2017-09-01T10:29:44.563Z,21.70
2017-09-01T10:32:12.639Z,22.00
2017-09-01T10:34:40.711Z,22.00
2017-09-01T10:37:09.202Z,21.90
2017-09-01T10:39:37.275Z,22.00
2017-09-01T10:42:05.791Z,21.80
2017-09-01T10:44:33.864Z,21.80
2017-09-01T10:47:01.938Z,21.90
2017-09-01T10:49:43.371Z,22.60
2017-09-01T10:52:23.391Z,23.00
2017-09-01T10:55:03.363Z,23.30
2017-09-01T10:57:43.782Z,23.90
2017-09-01T11:00:11.880Z,24.10
2017-09-01T11:02:39.975Z,24.40
2017-09-01T11:05:08.051Z,24.60
2017-09-01T11:10:34.703Z,24.10
2017-09-01T11:13:02.803Z,24.50
2017-09-01T11:15:30.879Z,24.80
2017-09-01T11:17:58.998Z,25.00
2017-09-01T11:23:35.156Z,25.90
2017-09-01T11:26:03.251Z,26.00
2017-09-01T11:28:31.332Z,26.00
2017-09-01T11:30:59.428Z,26.10
2017-09-01T11:33:27.527Z,25.90
2017-09-01T11:35:55.602Z,26.10
2017-09-01T11:38:23.726Z,26.70
2017-09-01T11:40:51.803Z,26.70
2017-09-01T11:43:19.884Z,26.50
2017-09-01T11:45:47.995Z,26.50
2017-09-01T11:48:16.080Z,27.00
2017-09-01T11:50:44.159Z,27.30
2017-09-01T11:53:12.655Z,27.50
2017-09-01T11:55:40.731Z,27.60
2017-09-01T11:58:08.828Z,28.00
2017-09-01T12:00:36.907Z,28.30
2017-09-01T12:03:05.303Z,28.30
2017-09-01T12:05:33.388Z,28.30
2017-09-01T12:08:01.469Z,28.10
2017-09-01T12:10:29.563Z,28.50
2017-09-01T12:12:57.643Z,28.60
2017-09-01T12:15:25.743Z,28.70
2017-09-01T12:17:53.816Z,28.40
2017-09-01T12:20:21.920Z,28.60
2017-09-01T12:22:50.004Z,28.60
2017-09-01T12:25:18.957Z,28.10
2017-09-01T12:27:47.007Z,28.50
2017-09-01T12:30:15.111Z,28.70
2017-09-01T12:32:43.193Z,28.70
2017-09-01T12:35:11.287Z,28.90
2017-09-01T12:37:40.239Z,28.90
2017-09-01T12:40:08.296Z,27.80
2017-09-01T12:42:36.797Z,26.30
2017-09-01T12:45:04.887Z,25.30
2017-09-01T12:47:33.446Z,24.30
2017-09-01T12:50:01.503Z,24.00
2017-09-01T12:52:29.591Z,24.10
2017-09-01T12:54:57.687Z,24.20
2017-09-01T12:57:26.552Z,26.80
2017-09-01T12:59:54.627Z,27.90
2017-09-01T13:02:22.728Z,27.90
2017-09-01T13:04:50.840Z,29.10
2017-09-01T13:07:19.352Z,29.60
2017-09-01T13:09:47.421Z,29.80
2017-09-01T13:12:15.501Z,30.40
2017-09-01T13:14:43.616Z,29.90
2017-09-01T13:17:11.695Z,29.90
2017-09-01T13:19:39.768Z,29.30
2017-09-01T13:22:07.876Z,29.60
2017-09-01T13:27:04.237Z,30.10
2017-09-01T13:29:32.712Z,30.00
2017-09-01T13:32:00.783Z,29.90
2017-09-01T13:34:28.880Z,29.90
2017-09-01T13:36:57.441Z,30.20
2017-09-01T13:39:25.536Z,30.30
2017-09-01T13:41:54.004Z,29.80
2017-09-01T13:44:22.496Z,29.60
2017-09-01T13:46:50.591Z,30.10
2017-09-01T13:49:18.692Z,30.20
2017-09-01T13:51:46.759Z,30.20
2017-09-01T13:54:15.619Z,30.50
2017-09-01T13:56:43.699Z,30.00
2017-09-01T13:59:11.795Z,30.00
2017-09-01T14:01:39.871Z,29.90
2017-09-01T14:04:07.952Z,30.20
2017-09-01T14:06:36.044Z,30.60
2017-09-01T14:09:04.119Z,30.60
2017-09-01T14:11:32.215Z,30.60
2017-09-01T14:14:00.300Z,30.60
2017-09-01T14:16:28.438Z,30.30
2017-09-01T14:18:56.485Z,29.70
2017-09-01T14:21:24.556Z,30.00
2017-09-01T14:23:53.067Z,29.70
2017-09-01T14:26:21.542Z,29.90
2017-09-01T14:28:49.607Z,30.10
2017-09-01T14:31:18.104Z,30.20
2017-09-01T14:33:46.191Z,30.70
2017-09-01T14:36:14.263Z,30.40
2017-09-01T14:38:42.368Z,30.40
2017-09-01T14:41:10.440Z,30.50
2017-09-01T14:43:38.514Z,30.80
2017-09-01T14:46:06.603Z,30.80
2017-09-01T14:48:35.112Z,30.30
2017-09-01T14:51:03.192Z,30.50
2017-09-01T14:53:31.296Z,30.40
2017-09-01T14:55:59.375Z,30.40
2017-09-01T14:58:27.460Z,30.30
2017-09-01T15:00:56.315Z,30.60
2017-09-01T15:03:24.393Z,30.70
2017-09-01T15:05:52.487Z,30.70
2017-09-01T15:08:21.359Z,30.80
2017-09-01T15:10:49.436Z,30.70
2017-09-01T15:13:17.507Z,30.70
2017-09-01T15:15:45.603Z,30.40
2017-09-01T15:18:13.675Z,30.20
2017-09-01T15:20:41.803Z,29.90
2017-09-01T15:23:09.879Z,29.60
2017-09-01T15:25:37.956Z,29.70
2017-09-01T15:28:06.056Z,29.20
2017-09-01T15:30:34.895Z,29.60
2017-09-01T15:33:02.987Z,29.60
2017-09-01T15:35:31.087Z,28.70
2017-09-01T15:37:59.187Z,28.80
2017-09-01T15:40:28.102Z,29.50
2017-09-01T15:42:56.135Z,29.70
2017-09-01T15:45:24.229Z,29.60
2017-09-01T15:47:52.340Z,29.00
2017-09-01T15:50:20.415Z,29.00
2017-09-01T15:52:48.496Z,29.00
2017-09-01T15:55:16.943Z,28.80
2017-09-01T15:57:45.424Z,28.60
2017-09-01T16:00:13.519Z,27.80
2017-09-01T16:02:41.603Z,26.10
2017-09-01T16:05:09.719Z,26.10
2017-09-01T16:07:38.187Z,24.40
2017-09-01T16:10:06.271Z,23.60
2017-09-01T16:12:35.131Z,22.80
2017-09-01T16:15:03.207Z,22.80
2017-09-01T16:17:31.740Z,22.30
2017-09-01T16:19:59.791Z,22.00
2017-09-01T16:22:27.874Z,22.00
2017-09-01T16:24:56.331Z,21.80
2017-09-01T16:27:26.077Z,22.10
2017-09-01T16:29:54.139Z,22.10
2017-09-01T16:32:22.254Z,22.20
2017-09-01T16:34:50.351Z,22.10
2017-09-01T16:37:18.436Z,21.80
2017-09-01T16:39:46.543Z,21.90
2017-09-01T16:42:14.620Z,21.70
2017-09-01T16:44:42.715Z,21.60
2017-09-01T16:47:10.815Z,21.60
2017-09-01T16:49:39.749Z,21.70
2017-09-01T16:52:07.832Z,21.50
2017-09-01T16:54:36.307Z,21.60
2017-09-01T16:57:04.388Z,21.40
2017-09-01T16:59:32.484Z,21.30
2017-09-01T17:02:00.560Z,21.00
2017-09-01T17:04:28.656Z,20.80
2017-09-01T17:06:56.731Z,20.60
2017-09-01T17:09:25.227Z,20.40
2017-09-01T17:11:54.130Z,20.20
2017-09-01T17:14:22.259Z,20.00
2017-09-01T17:16:50.339Z,19.90
2017-09-01T17:19:18.434Z,19.90
2017-09-01T17:21:46.528Z,19.70
2017-09-01T17:24:14.616Z,19.70
2017-09-01T17:26:42.711Z,19.60
2017-09-01T17:29:10.796Z,19.50
2017-09-01T17:31:38.927Z,19.30
2017-09-01T17:34:06.983Z,19.30
2017-09-01T17:36:35.472Z,19.20
2017-09-01T17:39:03.568Z,19.00
2017-09-01T17:41:31.683Z,19.10
2017-09-01T17:43:59.767Z,18.90
2017-09-01T17:46:27.860Z,18.90
2017-09-01T17:48:56.359Z,18.80
2017-09-01T17:51:24.437Z,18.60
2017-09-01T17:53:52.515Z,18.40
2017-09-01T17:56:21.383Z,18.50
2017-09-01T17:58:50.627Z,18.60
2017-09-01T18:01:19.488Z,18.70
2017-09-01T18:03:47.974Z,18.70
2017-09-01T18:06:17.983Z,18.70
2017-09-01T18:08:47.251Z,18.60
2017-09-01T18:11:15.723Z,18.50
2017-09-01T18:13:44.771Z,18.40
2017-09-01T18:16:12.846Z,18.30
2017-09-01T18:18:41.855Z,18.10
2017-09-01T18:21:10.723Z,17.90
2017-09-01T18:23:38.870Z,18.00
2017-09-01T18:26:08.712Z,18.10
2017-09-01T18:28:37.583Z,18.00
2017-09-01T18:31:06.451Z,18.00
2017-09-01T18:33:34.944Z,18.00
2017-09-01T18:36:03.043Z,18.00
2017-09-01T18:38:31.524Z,17.70
2017-09-01T18:41:00.403Z,17.60
2017-09-01T18:43:29.304Z,17.50
2017-09-01T18:46:00.209Z,17.40
2017-09-01T18:48:28.309Z,17.40
2017-09-01T18:50:56.367Z,17.30
2017-09-01T18:53:24.481Z,17.30
2017-09-01T18:55:52.559Z,17.30
2017-09-01T18:58:21.104Z,17.20
2017-09-01T19:00:49.191Z,17.20
2017-09-01T19:03:18.456Z,17.20
2017-09-01T19:05:46.551Z,17.10
2017-09-01T19:08:14.660Z,17.00
2017-09-01T19:10:44.587Z,17.00
2017-09-01T19:13:14.616Z,16.90
2017-09-01T19:15:42.748Z,17.00
2017-09-01T19:18:11.980Z,17.00
2017-09-01T19:20:40.867Z,17.00
2017-09-01T19:23:10.112Z,17.00
2017-09-01T19:25:39.019Z,17.10
2017-09-01T19:28:07.581Z,17.00
2017-09-01T19:30:36.402Z,17.10
2017-09-01T19:33:04.506Z,17.10
2017-09-01T19:35:32.607Z,17.10
2017-09-01T19:38:01.988Z,17.00
2017-09-01T19:40:30.088Z,17.00
2017-09-01T19:42:59.980Z,17.00
2017-09-01T19:45:31.763Z,17.10
2017-09-01T19:48:00.600Z,17.20
2017-09-01T19:50:28.750Z,17.40
2017-09-01T19:52:56.856Z,17.40
2017-09-01T19:55:25.709Z,17.40
2017-09-01T19:57:53.811Z,17.40
2017-09-01T20:00:22.858Z,17.30
2017-09-01T20:02:50.970Z,17.20
2017-09-01T20:05:19.128Z,17.10
2017-09-01T20:07:47.731Z,17.10
2017-09-01T20:10:15.884Z,17.10
2017-09-01T20:12:43.967Z,17.10
2017-09-01T20:15:12.136Z,17.10
2017-09-01T20:17:40.622Z,17.10
2017-09-01T20:20:08.788Z,17.10
2017-09-01T20:22:37.652Z,17.00
2017-09-01T20:25:05.763Z,17.00
2017-09-01T20:27:34.722Z,17.00
2017-09-01T20:30:02.940Z,17.00
2017-09-01T20:32:31.030Z,17.00
2017-09-01T20:34:59.143Z,16.80
2017-09-01T20:37:27.219Z,16.70
2017-09-01T20:39:55.336Z,16.70
2017-09-01T20:42:24.189Z,16.80
2017-09-01T20:44:53.415Z,16.70
2017-09-01T20:47:21.579Z,16.80
2017-09-01T20:49:49.663Z,16.80
2017-09-01T20:52:17.824Z,16.80
2017-09-01T20:54:46.100Z,16.80
2017-09-01T20:57:14.184Z,16.70
2017-09-01T20:59:42.331Z,16.70
2017-09-01T21:02:10.611Z,16.60
2017-09-01T21:04:38.717Z,16.60
2017-09-01T21:07:06.804Z,16.50
2017-09-01T21:09:35.040Z,16.50
2017-09-01T21:12:03.188Z,16.50
2017-09-01T21:14:31.291Z,16.50
2017-09-01T21:16:59.399Z,16.40
2017-09-01T21:19:28.206Z,16.30
2017-09-01T21:21:56.321Z,16.10
2017-09-01T21:24:24.419Z,16.00
2017-09-01T21:26:52.509Z,15.90
2017-09-01T21:29:20.592Z,15.90
2017-09-01T21:31:48.800Z,15.90
2017-09-01T21:34:16.908Z,16.20
2017-09-01T21:36:44.996Z,16.40
2017-09-01T21:39:13.870Z,16.40
2017-09-01T21:41:41.952Z,16.50
2017-09-01T21:44:10.821Z,16.50
2017-09-01T21:46:38.904Z,16.40
2017-09-01T21:49:07.032Z,16.40
2017-09-01T21:51:35.128Z,16.40
2017-09-01T21:54:03.209Z,16.50
2017-09-01T21:56:31.317Z,16.60
2017-09-01T21:58:59.418Z,16.40
2017-09-01T22:01:33.299Z,16.30
2017-09-01T22:04:01.408Z,16.40
2017-09-01T22:06:29.504Z,16.40
2017-09-01T22:08:57.615Z,16.40
2017-09-01T22:11:25.698Z,16.40
2017-09-01T22:13:53.815Z,16.40
2017-09-01T22:16:21.902Z,16.50
2017-09-01T22:18:50.000Z,16.40
2017-09-01T22:21:18.855Z,16.50
2017-09-01T22:23:46.970Z,16.50
2017-09-01T22:26:15.057Z,16.60
2017-09-01T22:28:43.152Z,16.70
2017-09-01T22:31:11.282Z,16.60
2017-09-01T22:33:39.364Z,16.60
2017-09-01T22:36:07.451Z,16.60
2017-09-01T22:38:36.707Z,16.40
2017-09-01T22:41:04.804Z,16.40
2017-09-01T22:43:32.960Z,16.30
2017-09-01T22:46:01.931Z,16.20
2017-09-01T22:48:30.012Z,16.20
2017-09-01T22:50:58.272Z,16.40
2017-09-01T22:56:01.656Z,16.50
2017-09-01T22:58:29.741Z,16.50
2017-09-01T23:00:57.844Z,16.50
2017-09-01T23:03:26.349Z,16.40
2017-09-01T23:05:54.828Z,16.40
2017-09-01T23:08:22.927Z,16.40
2017-09-01T23:10:51.043Z,16.50
2017-09-01T23:13:19.526Z,16.60
2017-09-01T23:15:47.697Z,16.60
2017-09-01T23:18:16.767Z,16.30
2017-09-01T23:20:44.895Z,16.30
2017-09-01T23:23:13.741Z,16.30
2017-09-01T23:25:42.220Z,16.30
2017-09-01T23:28:10.723Z,16.00
2017-09-01T23:30:39.224Z,16.10
2017-09-01T23:33:08.092Z,16.20
2017-09-01T23:35:36.179Z,16.10
2017-09-01T23:38:04.299Z,16.10
2017-09-01T23:40:32.392Z,16.20
2017-09-01T23:43:00.491Z,16.20
2017-09-01T23:45:28.592Z,16.40
2017-09-01T23:47:57.934Z,16.20
2017-09-01T23:50:26.131Z,16.20
2017-09-01T23:52:54.221Z,16.20
2017-09-01T23:55:22.484Z,16.20
2017-09-01T23:57:51.164Z,16.10
